This is the latest recevied weather packets stored in our database for station/object SV9FBP-13. If no packets are shown the sender has not sent any weather packets the latest 10 day(s).
| Time | Temp. | Humidity | Pressure | Rain* | Wind** | Luminosity | Snow |
|---|---|---|---|---|---|---|---|
| 1787300614 | 33.33° C | 42% | 1009.6 hPa | 0 mm | - | - | - |
| 1787299713 | 33.33° C | 41% | 1009.7 hPa | 0 mm | - | - | - |
| 1787298811 | 33.89° C | 30% | 1009.5 hPa | 0 mm | - | - | - |
| 1787297908 | 33.33° C | 33% | 1009.2 hPa | 0 mm | - | - | - |
| 1787297006 | 33.33° C | 32% | 1009.3 hPa | 0 mm | - | - | - |
| 1787296104 | 32.22° C | 35% | 1009.4 hPa | 0 mm | - | - | - |
| 1787295202 | 33.33° C | 31% | 1009.3 hPa | 0 mm | - | - | - |
| 1787294300 | 33.89° C | 31% | 1009.4 hPa | 0 mm | - | - | - |
| 1787293397 | 33.89° C | 31% | 1009.4 hPa | 0 mm | - | - | - |
| 1787292495 | 33.33° C | 32% | 1009.5 hPa | 0 mm | - | - | - |
| 1787291593 | 32.22° C | 36% | 1009.4 hPa | 0 mm | - | - | - |
| 1787290691 | 31.11° C | 39% | 1009.4 hPa | 0 mm | - | - | - |
| 1787289788 | 29.44° C | 40% | 1009.3 hPa | 0 mm | - | - | - |
| 1787288887 | 28.89° C | 41% | 1009.4 hPa | 0 mm | - | - | - |
| 1787287984 | 28.33° C | 43% | 1009.2 hPa | 0 mm | - | - | - |
| 1787287083 | 27.78° C | 43% | 1009.1 hPa | 0 mm | - | - | - |
| 1787286179 | 27.22° C | 50% | 1009 hPa | 0 mm | - | - | - |
| 1787285278 | 25.56° C | 52% | 1008.7 hPa | 0 mm | - | - | - |
| 1787284376 | 25° C | 52% | 1008.7 hPa | 0 mm | - | - | - |
| 1787283473 | 25.56° C | 50% | 1008.7 hPa | 0 mm | - | - | - |
| 1787282571 | 24.44° C | 52% | 1008.6 hPa | 0 mm | - | - | - |
| 1787281669 | 24.44° C | 53% | 1008.8 hPa | 0 mm | - | - | - |
| 1787280767 | 24.44° C | 52% | 1008.9 hPa | 0 mm | - | - | - |
| 1787279865 | 25° C | 51% | 1008.9 hPa | 0 mm | - | - | - |
| 1787278962 | 26.11° C | 49% | 1008.8 hPa | 0 mm | - | - | - |
* Rain latest hour (hover to see other rain measurements)
** Current wind speed in m/s (hover to see current wind gust speed)